Akhiok, Alaska
Current Conditions -  °F | °C
As of 12:53 PM on Monday 24 Nov 2014 (Local Time) from PADQ Reporting Station
Broken Clouds Broken Clouds  
Wind Chill: 41°   Ceiling: 2100
Heat Index: 41°   Visibility: 10mi
Dew Point: 36°   Wind: 3mph
Humidity: 82%   Direction: 230°SW
Pressure: 29.7"   Gusts: NA
Location:  57.454°N, 153.546°W
Report Text: PADQ 242153Z 23003KT 10SM BKN021 05/02 A2970 RMK AO2 SLP058 T00500022
Loading
Personal Weather Stations






























Interactive Weather Map New forecast layout! Learn more

10-Day Weather Forecast

Advertisements
Track Severe Weather on mobile